Williams, OR (97544)

8:02 AM PST on February 13, 2016 (GMT -0800)
H^5 Ranch | | Change Station
CLOSE
Current Station
Personal Weather Station
Location: Williams, OR
Elevation: 1490 ft
Nearby Weather Stations
Active Advisory: Dense Fog Advisory Active Notice: Record Report

Elev 1490 ft 42.25 °N, 123.28 °W | Updated 10 minutes ago

Mostly Cloudy
Mostly Cloudy
32.1 °F
Feels Like 32 °F
N
0.0
Wind Variable Wind from West
Gusts 0.0 mph

Today
High -- | Low -- °F
--% Chance of Precip.
Yesterday
High -- | Low -- °F
Precip. -- in
Pressure 30.40 in
Visibility 0.2 miles
Clouds Overcast 400 ft
Windchill 32 °F
Dew Point 32 °F
Humidity 99%
Rainfall 0.00 in
Snow Depth Not available.
7:12 AM 5:42 PM
Waxing Crescent, 32% visible
METAR KMFR 131553Z 00000KT 1/4SM R14/3000VP6000FT FG OVC004 04/04 A3039 RMK AO2 SLP294 T00440039
Pressure 30.40 in
Visibility 0.2 miles
Clouds Overcast 400 ft
Windchill 32 °F
Dew Point 32 °F
Humidity 99%
Rainfall 0.00 in
Snow Depth Not available.
7:12 AM 5:42 PM
Waxing Crescent, 32% visible
METAR KMFR 131553Z 00000KT 1/4SM R14/3000VP6000FT FG OVC004 04/04 A3039 RMK AO2 SLP294 T00440039

10-Day Weather Forecast

Almanac

Astronomy

Feb. 13, 2016 Rise Set
Actual Time
Civil Twilight
Nautical Twilight
Astronomical Twilight
Moon
Length of Visible Light
Length of Day
Tomorrow will be .
, % of the Moon is Illuminated

Today's Extremes

State Highs State Lows

Community

WunderPhotos

Upload Photos

1,892,595 photos uploaded!

WunderBlog® & News

Nearby

Air Quality

  Air Quality AQ Index Pollutant
Not available.

Snow Depth

Station Depth Elevation

Earthquake Activity

City Distance Mag. Time & Date
Minimum magnitude displayed is 2.5.

Coastal Water Temperatures

Place Temperature

Stations

Nearby Weather Stations

Station Location Temp. Windchill Dew Point Humidity Wind Precip. Elev Updated Type
                   

Watches & Warnings

Dense Fog Advisory
Issued: 6:32 AM PST Feb. 13, 2016 – National Weather Service

... Dense fog advisory in effect until 10 am PST this morning...

The National Weather Service in Medford has issued a dense fog
advisory... which is in effect until 10 am PST this morning.

* Visibility: less than one quarter mile. Visibility should
improve late this morning.

* Locations include: portions of the Illinois Valley including
Cave Junction... and portions of the Rogue Valley from Phoenix
north to Medford.

* Impacts: low visibility will create hazardous travel conditions
this morning on area roadways... including Highway 199 and
Interstate 5.

* View the hazard area in detail at
http://weather.Gov/Medford/hazard

Precautionary/preparedness actions...

A dense fog advisory means visibilities will frequently be
reduced to less than one quarter mile. Slow down... use your
headlights... and leave plenty of distance ahead of you.



Sk